createdAt,value
2022-11-10T00:02:24.589Z,16.98
2022-11-10T00:05:11.482Z,15.80
2022-11-10T00:08:02.991Z,18.05
2022-11-10T00:10:58.809Z,16.17
2022-11-10T00:14:02.784Z,16.67
2022-11-10T00:17:05.269Z,15.70
2022-11-10T00:19:51.711Z,14.27
2022-11-10T00:22:39.744Z,16.52
2022-11-10T00:25:28.867Z,16.33
2022-11-10T00:28:15.642Z,17.20
2022-11-10T00:31:06.982Z,16.75
2022-11-10T00:33:53.308Z,16.17
2022-11-10T00:36:40.279Z,14.82
2022-11-10T00:39:28.083Z,13.40
2022-11-10T00:42:16.338Z,12.85
2022-11-10T00:45:03.165Z,16.35
2022-11-10T00:47:49.633Z,14.73
2022-11-10T00:50:36.256Z,15.75
2022-11-10T00:53:23.277Z,13.80
2022-11-10T00:56:10.223Z,13.73
2022-11-10T00:58:58.128Z,13.23
2022-11-10T01:01:44.806Z,16.45
2022-11-10T01:04:31.460Z,14.07
2022-11-10T01:07:18.101Z,17.65
2022-11-10T01:10:05.578Z,17.00
2022-11-10T01:12:52.029Z,18.05
2022-11-10T01:15:41.671Z,16.13
2022-11-10T01:18:28.057Z,15.60
2022-11-10T01:21:14.793Z,16.85
2022-11-10T01:24:01.694Z,15.00
2022-11-10T01:26:48.259Z,13.63
2022-11-10T01:29:35.143Z,13.50
2022-11-10T01:32:23.267Z,13.82
2022-11-10T01:35:10.168Z,14.85
2022-11-10T01:37:56.557Z,14.23
2022-11-10T01:40:43.287Z,14.77
2022-11-10T01:43:30.329Z,14.25
2022-11-10T01:46:17.162Z,12.43
2022-11-10T01:49:06.015Z,14.10
2022-11-10T01:51:57.704Z,14.15
2022-11-10T01:54:48.180Z,12.82
2022-11-10T01:57:36.726Z,12.55
2022-11-10T02:00:24.045Z,13.52
2022-11-10T02:03:14.697Z,13.85
2022-11-10T02:06:02.835Z,12.60
2022-11-10T02:08:51.157Z,11.60
2022-11-10T02:11:39.654Z,11.98
2022-11-10T02:14:26.477Z,12.90
2022-11-10T02:17:14.517Z,12.27
2022-11-10T02:20:04.568Z,11.02
2022-11-10T02:22:52.327Z,10.90
2022-11-10T02:25:38.883Z,12.30
2022-11-10T02:28:27.163Z,11.52
2022-11-10T02:31:13.687Z,11.95
2022-11-10T02:34:00.607Z,12.15
2022-11-10T02:36:46.995Z,11.90
2022-11-10T02:39:35.060Z,12.70
2022-11-10T02:42:21.881Z,12.50
2022-11-10T02:45:09.273Z,11.02
2022-11-10T02:47:56.248Z,11.93
2022-11-10T02:50:43.043Z,11.25
2022-11-10T02:53:29.463Z,11.00
2022-11-10T02:56:17.140Z,10.60
2022-11-10T02:59:04.803Z,10.07
2022-11-10T03:01:51.353Z,10.50
2022-11-10T03:04:38.078Z,10.05
2022-11-10T03:07:24.795Z,10.65
2022-11-10T03:10:11.691Z,10.23
2022-11-10T03:13:01.199Z,10.65
2022-11-10T03:15:48.489Z,10.15
2022-11-10T03:18:35.247Z,11.77
2022-11-10T03:21:21.874Z,11.52
2022-11-10T03:24:08.775Z,12.98
2022-11-10T03:26:55.153Z,12.00
2022-11-10T03:29:43.201Z,11.77
2022-11-10T03:32:29.672Z,11.98
2022-11-10T03:35:16.444Z,9.88
2022-11-10T03:38:03.051Z,9.85
2022-11-10T03:41:17.545Z,9.50
2022-11-10T03:43:58.184Z,9.05
2022-11-10T03:46:51.311Z,9.75
2022-11-10T03:49:38.385Z,13.02
2022-11-10T03:52:25.188Z,11.18
2022-11-10T03:55:13.216Z,12.77
2022-11-10T03:58:03.153Z,11.65
2022-11-10T04:00:49.477Z,13.82
2022-11-10T04:03:37.542Z,15.35
2022-11-10T04:06:42.397Z,12.35
2022-11-10T04:09:28.926Z,13.98
2022-11-10T04:12:33.206Z,15.70
2022-11-10T04:15:37.937Z,14.90
2022-11-10T04:18:29.513Z,12.20
2022-11-10T04:21:18.673Z,13.38
2022-11-10T04:24:05.486Z,14.38
2022-11-10T04:26:52.060Z,13.18
2022-11-10T04:29:38.754Z,15.23
2022-11-10T04:32:25.387Z,13.55
2022-11-10T04:35:12.264Z,12.95
2022-11-10T04:38:01.373Z,12.27
2022-11-10T04:40:48.098Z,11.20
2022-11-10T04:43:34.683Z,9.65
2022-11-10T04:46:25.733Z,11.70
2022-11-10T04:49:12.428Z,16.58
2022-11-10T04:51:59.003Z,10.75
2022-11-10T04:54:46.845Z,10.85
2022-11-10T04:57:33.551Z,12.52
2022-11-10T05:00:20.980Z,8.98
2022-11-10T05:03:09.714Z,13.13
2022-11-10T05:05:56.460Z,12.25
2022-11-10T05:08:44.287Z,15.27
2022-11-10T05:11:32.260Z,15.23
2022-11-10T05:14:18.950Z,14.13
2022-11-10T05:17:05.623Z,14.00
2022-11-10T05:19:52.122Z,15.38
2022-11-10T05:22:38.775Z,16.52
2022-11-10T05:25:28.355Z,14.55
2022-11-10T05:28:16.396Z,14.52
2022-11-10T05:31:02.805Z,16.88
2022-11-10T05:33:49.476Z,15.60
2022-11-10T05:36:36.158Z,14.82
2022-11-10T05:39:22.696Z,14.82
2022-11-10T05:42:09.603Z,15.93
2022-11-10T05:44:57.327Z,13.32
2022-11-10T05:47:43.994Z,15.82
2022-11-10T05:50:30.785Z,14.93
2022-11-10T05:53:18.466Z,15.45
2022-11-10T05:56:05.473Z,15.50
2022-11-10T05:58:52.077Z,14.02
2022-11-10T06:01:40.057Z,14.95
2022-11-10T06:04:26.855Z,14.68
2022-11-10T06:07:13.485Z,12.80
2022-11-10T06:10:00.131Z,16.63
2022-11-10T06:12:46.853Z,15.40
2022-11-10T06:15:35.252Z,16.65
2022-11-10T06:18:23.168Z,15.73
2022-11-10T06:21:09.867Z,16.38
2022-11-10T06:23:56.486Z,15.98
2022-11-10T06:26:43.173Z,17.25
2022-11-10T06:29:29.876Z,16.25
2022-11-10T06:32:16.889Z,15.00
2022-11-10T06:35:05.236Z,15.23
2022-11-10T06:37:59.641Z,15.43
2022-11-10T06:40:46.354Z,15.90
2022-11-10T06:43:33.186Z,15.15
2022-11-10T06:46:19.985Z,13.82
2022-11-10T06:49:06.537Z,12.75
2022-11-10T06:51:54.557Z,15.77
2022-11-10T06:54:41.138Z,16.23
2022-11-10T06:57:28.102Z,12.18
2022-11-10T07:00:16.159Z,14.63
2022-11-10T07:03:03.877Z,12.32
2022-11-10T07:05:50.523Z,14.68
2022-11-10T07:08:38.258Z,15.85
2022-11-10T07:11:24.799Z,10.55
2022-11-10T07:14:11.673Z,13.57
2022-11-10T07:16:58.468Z,16.00
2022-11-10T07:19:45.172Z,12.63
2022-11-10T07:22:31.726Z,18.05
2022-11-10T07:25:19.735Z,15.38
2022-11-10T07:28:10.367Z,15.35
2022-11-10T07:30:56.880Z,13.85
2022-11-10T07:33:43.997Z,16.63
2022-11-10T07:36:30.652Z,13.70
2022-11-10T07:39:17.528Z,16.15
2022-11-10T07:42:05.809Z,11.77
2022-11-10T07:44:52.384Z,12.70
2022-11-10T07:47:39.078Z,15.38
2022-11-10T07:50:25.790Z,17.02
2022-11-10T07:53:14.741Z,14.65
2022-11-10T07:56:01.324Z,14.50
2022-11-10T07:58:49.613Z,16.70
2022-11-10T08:01:36.012Z,15.63
2022-11-10T08:04:22.684Z,12.25
2022-11-10T08:07:09.631Z,14.07
2022-11-10T08:09:56.201Z,13.35
2022-11-10T08:12:42.867Z,15.25
2022-11-10T08:15:32.465Z,16.90
2022-11-10T08:18:20.807Z,17.70
2022-11-10T08:21:07.624Z,15.05
2022-11-10T08:23:54.022Z,12.73
2022-11-10T08:26:40.513Z,12.73
2022-11-10T08:29:27.139Z,15.43
2022-11-10T08:32:15.875Z,18.20
2022-11-10T08:35:02.803Z,13.63
2022-11-10T08:37:49.812Z,13.63
2022-11-10T08:40:36.886Z,18.80
2022-11-10T08:43:23.777Z,14.85
2022-11-10T08:46:10.973Z,14.18
2022-11-10T08:48:58.872Z,16.80
2022-11-10T08:51:45.545Z,16.27
2022-11-10T08:54:32.594Z,14.88
2022-11-10T08:57:19.232Z,14.75
2022-11-10T09:00:06.879Z,12.05
2022-11-10T09:02:53.684Z,15.43
2022-11-10T09:05:43.450Z,16.55
2022-11-10T09:08:30.348Z,15.02
2022-11-10T09:11:16.784Z,12.93
2022-11-10T09:14:03.497Z,17.80
2022-11-10T09:16:50.062Z,14.27
2022-11-10T09:19:36.884Z,16.40
2022-11-10T09:22:24.566Z,12.45
2022-11-10T09:25:11.212Z,15.32
2022-11-10T09:27:57.937Z,17.10
2022-11-10T09:30:46.561Z,11.40
2022-11-10T09:33:33.422Z,17.13
2022-11-10T09:36:20.101Z,15.50
2022-11-10T09:39:08.271Z,18.63
2022-11-10T09:41:56.537Z,14.68
2022-11-10T09:44:51.998Z,18.25
2022-11-10T09:47:57.525Z,16.90
2022-11-10T09:50:50.384Z,16.65
2022-11-10T09:53:42.381Z,19.63
2022-11-10T09:56:34.027Z,17.70
2022-11-10T09:59:27.434Z,18.38
2022-11-10T10:02:23.583Z,18.95
2022-11-10T10:05:34.890Z,17.95
2022-11-10T10:08:31.027Z,15.38
2022-11-10T10:11:32.479Z,16.90
2022-11-10T10:14:36.024Z,16.65
2022-11-10T10:17:27.864Z,13.70
2022-11-10T10:20:20.967Z,12.93
2022-11-10T10:23:19.203Z,11.32
2022-11-10T10:26:06.101Z,17.23
2022-11-10T10:28:53.114Z,18.95
2022-11-10T10:31:44.315Z,18.25
2022-11-10T10:34:34.460Z,14.73
2022-11-10T10:37:26.477Z,14.32
2022-11-10T10:40:17.508Z,15.60
2022-11-10T10:43:05.418Z,17.48
2022-11-10T10:46:06.782Z,17.40
2022-11-10T10:49:28.035Z,17.83
2022-11-10T10:52:17.823Z,21.38
2022-11-10T10:55:08.436Z,15.60
2022-11-10T10:58:01.181Z,18.35
2022-11-10T11:00:49.638Z,18.85
2022-11-10T11:03:42.921Z,16.52
2022-11-10T11:06:31.892Z,15.95
2022-11-10T11:09:20.866Z,14.50
2022-11-10T11:12:09.841Z,16.08
2022-11-10T11:15:14.623Z,15.60
2022-11-10T11:18:02.756Z,15.88
2022-11-10T11:20:58.412Z,17.13
2022-11-10T11:24:01.237Z,14.15
2022-11-10T11:26:56.627Z,14.32
2022-11-10T11:29:59.986Z,14.43
2022-11-10T11:33:19.319Z,17.92
2022-11-10T11:36:15.478Z,18.90
2022-11-10T11:39:16.720Z,19.75
2022-11-10T11:42:15.260Z,19.70
2022-11-10T11:45:17.804Z,15.10
2022-11-10T11:48:45.863Z,16.90
2022-11-10T11:51:39.388Z,15.30
2022-11-10T11:54:42.441Z,19.35
2022-11-10T11:57:41.262Z,14.90
2022-11-10T12:00:30.132Z,19.63
2022-11-10T12:03:33.087Z,18.80
2022-11-10T12:06:34.175Z,17.70
2022-11-10T12:09:29.051Z,13.82
2022-11-10T12:12:31.680Z,14.77
2022-11-10T12:15:29.970Z,16.33
2022-11-10T12:18:31.692Z,14.40
2022-11-10T12:21:26.203Z,18.52
2022-11-10T12:24:29.146Z,18.83
2022-11-10T12:27:22.428Z,13.88
2022-11-10T12:30:12.997Z,16.38
2022-11-10T12:33:05.219Z,18.33
2022-11-10T12:35:54.907Z,17.17
2022-11-10T12:38:47.199Z,18.05
2022-11-10T12:41:42.842Z,16.63
2022-11-10T12:44:36.468Z,17.95
2022-11-10T12:47:25.610Z,17.75
2022-11-10T12:50:32.241Z,17.52
2022-11-10T12:53:23.633Z,17.80
2022-11-10T12:56:19.669Z,14.75
2022-11-10T12:59:25.446Z,21.20
2022-11-10T13:02:28.405Z,16.58
2022-11-10T13:05:33.466Z,15.38
2022-11-10T13:08:32.985Z,16.48
2022-11-10T13:11:26.734Z,17.83
2022-11-10T13:14:23.855Z,19.02
2022-11-10T13:17:12.170Z,16.83
2022-11-10T13:20:20.826Z,17.88
2022-11-10T13:23:26.248Z,18.17
2022-11-10T13:26:33.154Z,18.67
2022-11-10T13:29:32.206Z,14.18
2022-11-10T13:32:30.846Z,14.88
2022-11-10T13:35:56.014Z,15.98
2022-11-10T13:38:44.177Z,17.13
2022-11-10T13:41:33.671Z,15.38
2022-11-10T13:44:27.978Z,14.43
2022-11-10T13:47:42.576Z,11.77
2022-11-10T13:50:41.313Z,14.73
2022-11-10T13:53:42.205Z,16.08
2022-11-10T13:56:42.504Z,14.00
2022-11-10T13:59:33.964Z,12.88
2022-11-10T14:03:00.901Z,13.68
2022-11-10T14:06:13.852Z,16.70
2022-11-10T14:09:07.206Z,14.25
2022-11-10T14:11:59.169Z,14.73
2022-11-10T14:14:53.695Z,15.45
2022-11-10T14:17:45.186Z,13.85
2022-11-10T14:20:44.424Z,14.35
2022-11-10T14:23:35.504Z,16.60
2022-11-10T14:26:28.846Z,14.43
2022-11-10T14:29:34.513Z,13.98
2022-11-10T14:32:24.253Z,14.75
2022-11-10T14:35:20.955Z,13.48
2022-11-10T14:38:20.409Z,14.35
2022-11-10T14:41:15.547Z,13.07
2022-11-10T14:44:05.212Z,12.25
2022-11-10T14:46:52.747Z,13.07
2022-11-10T14:49:39.562Z,13.43
2022-11-10T14:52:26.077Z,11.95
2022-11-10T14:55:18.458Z,14.80
2022-11-10T14:58:12.310Z,13.77
2022-11-10T15:01:01.389Z,13.55
2022-11-10T15:03:48.364Z,15.05
2022-11-10T15:06:35.539Z,15.20
2022-11-10T15:09:28.111Z,16.55
2022-11-10T15:12:24.318Z,15.13
2022-11-10T15:15:20.906Z,14.18
2022-11-10T15:18:27.971Z,14.77
2022-11-10T15:21:16.100Z,14.75
2022-11-10T15:24:06.516Z,13.48
2022-11-10T15:26:54.291Z,13.48
2022-11-10T15:29:41.183Z,14.93
2022-11-10T15:32:34.721Z,14.23
2022-11-10T15:35:31.705Z,14.80
2022-11-10T15:38:31.486Z,13.10
2022-11-10T15:41:27.519Z,13.60
2022-11-10T15:44:16.033Z,14.40
2022-11-10T15:47:02.427Z,14.10
2022-11-10T15:49:49.112Z,13.95
2022-11-10T15:52:39.426Z,15.02
2022-11-10T15:55:25.901Z,14.73
2022-11-10T15:58:16.651Z,16.05
2022-11-10T16:01:03.556Z,15.63
2022-11-10T16:03:50.389Z,16.00
2022-11-10T16:06:37.576Z,15.77
2022-11-10T16:09:25.702Z,15.02
2022-11-10T16:12:18.687Z,16.83
2022-11-10T16:15:06.292Z,15.38
2022-11-10T16:17:52.716Z,18.98
2022-11-10T16:20:39.436Z,21.90
2022-11-10T16:23:27.049Z,19.30
2022-11-10T16:26:17.224Z,18.42
2022-11-10T16:29:04.322Z,22.33
2022-11-10T16:31:51.050Z,17.92
2022-11-10T16:34:37.743Z,18.65
2022-11-10T16:37:25.987Z,19.92
2022-11-10T16:40:15.686Z,17.48
2022-11-10T16:43:03.511Z,16.05
2022-11-10T16:45:52.392Z,15.88
2022-11-10T16:48:38.824Z,15.52
2022-11-10T16:51:29.710Z,18.13
2022-11-10T16:54:16.924Z,17.58
2022-11-10T16:57:03.585Z,16.63
2022-11-10T16:59:51.278Z,15.70
2022-11-10T17:02:39.786Z,17.17
2022-11-10T17:05:26.641Z,17.23
2022-11-10T17:08:22.850Z,17.50
2022-11-10T17:11:11.469Z,16.15
2022-11-10T17:13:57.952Z,14.50
2022-11-10T17:16:51.180Z,15.63
2022-11-10T17:19:37.487Z,15.50
2022-11-10T17:22:25.445Z,14.45
2022-11-10T17:25:16.623Z,14.25
2022-11-10T17:28:03.552Z,13.10
2022-11-10T17:30:52.405Z,13.80
2022-11-10T17:33:40.366Z,13.82
2022-11-10T17:36:27.142Z,12.85
2022-11-10T17:39:15.526Z,14.32
2022-11-10T17:42:03.072Z,13.82
2022-11-10T17:44:49.747Z,12.02
2022-11-10T17:47:37.488Z,13.35
2022-11-10T17:50:25.774Z,13.68
2022-11-10T17:53:19.502Z,12.43
2022-11-10T17:56:06.744Z,12.73
2022-11-10T17:58:54.208Z,12.30
2022-11-10T18:01:40.760Z,13.65
2022-11-10T18:04:29.648Z,12.10
2022-11-10T18:07:17.632Z,14.32
2022-11-10T18:10:06.283Z,14.30
2022-11-10T18:12:55.714Z,15.88
2022-11-10T18:15:45.515Z,9.45
2022-11-10T18:18:32.102Z,13.95
2022-11-10T18:21:18.832Z,13.63
2022-11-10T18:24:08.343Z,13.10
2022-11-10T18:26:58.878Z,13.77
2022-11-10T18:29:45.325Z,14.50
2022-11-10T18:32:32.253Z,13.20
2022-11-10T18:35:18.789Z,15.30
2022-11-10T18:38:06.442Z,14.77
2022-11-10T18:41:17.926Z,15.13
2022-11-10T18:44:04.621Z,14.32
2022-11-10T18:46:51.237Z,14.43
2022-11-10T18:49:37.685Z,12.98
2022-11-10T18:52:24.282Z,19.30
2022-11-10T18:55:12.203Z,15.57
2022-11-10T18:57:59.883Z,16.98
2022-11-10T19:00:46.791Z,15.70
2022-11-10T19:03:33.363Z,16.40
2022-11-10T19:06:20.105Z,15.38
2022-11-10T19:09:06.949Z,15.43
2022-11-10T19:11:53.684Z,14.68
2022-11-10T19:14:42.684Z,16.73
2022-11-10T19:17:29.202Z,14.70
2022-11-10T19:20:16.482Z,15.77
2022-11-10T19:23:02.837Z,15.40
2022-11-10T19:25:49.632Z,15.45
2022-11-10T19:28:36.448Z,15.52
2022-11-10T19:31:25.425Z,15.07
2022-11-10T19:34:11.983Z,15.32
2022-11-10T19:36:58.519Z,14.55
2022-11-10T19:39:44.996Z,15.10
2022-11-10T19:42:31.950Z,13.02
2022-11-10T19:45:18.430Z,13.65
2022-11-10T19:48:07.996Z,13.45
2022-11-10T19:50:55.416Z,12.63
2022-11-10T19:53:42.412Z,11.75
2022-11-10T19:56:31.864Z,13.93
2022-11-10T19:59:21.015Z,13.77
2022-11-10T20:02:08.357Z,14.45
2022-11-10T20:05:16.299Z,13.77
2022-11-10T20:08:11.751Z,12.82
2022-11-10T20:11:01.211Z,13.57
2022-11-10T20:13:54.425Z,11.73
2022-11-10T20:16:43.014Z,12.60
2022-11-10T20:19:30.996Z,13.20
2022-11-10T20:22:19.126Z,13.15
2022-11-10T20:25:08.932Z,13.07
2022-11-10T20:27:55.866Z,12.98
2022-11-10T20:30:45.966Z,11.93
2022-11-10T20:33:33.598Z,11.15
2022-11-10T20:36:24.314Z,11.63
2022-11-10T20:39:15.355Z,11.07
2022-11-10T20:42:01.993Z,11.45
2022-11-10T20:44:48.609Z,12.23
2022-11-10T20:47:35.382Z,11.13
2022-11-10T20:50:24.511Z,12.00
2022-11-10T20:53:13.065Z,11.52
2022-11-10T20:56:02.556Z,10.82
2022-11-10T20:58:51.791Z,10.68
2022-11-10T21:01:38.516Z,11.05
2022-11-10T21:04:25.554Z,11.15
2022-11-10T21:07:12.254Z,11.25
2022-11-10T21:09:58.920Z,12.00
2022-11-10T21:12:53.115Z,11.07
2022-11-10T21:15:40.729Z,12.23
2022-11-10T21:18:30.881Z,10.38
2022-11-10T21:21:22.914Z,11.43
2022-11-10T21:24:10.736Z,10.68
2022-11-10T21:26:57.718Z,23.60
2022-11-10T21:29:46.385Z,12.57
2022-11-10T21:32:33.044Z,13.25
2022-11-10T21:35:20.953Z,11.15
2022-11-10T21:38:07.401Z,11.05
2022-11-10T21:40:54.579Z,15.40
2022-11-10T21:43:42.138Z,11.68
2022-11-10T21:46:30.384Z,11.43
2022-11-10T21:49:17.457Z,10.80
2022-11-10T21:52:03.876Z,11.07
2022-11-10T21:54:50.425Z,16.52
2022-11-10T21:57:37.070Z,14.55
2022-11-10T22:00:23.690Z,10.43
2022-11-10T22:03:11.290Z,12.63
2022-11-10T22:06:02.727Z,14.15
2022-11-10T22:08:49.704Z,15.10
2022-11-10T22:11:53.842Z,15.07
2022-11-10T22:14:58.255Z,12.73
2022-11-10T22:18:02.567Z,13.50
2022-11-10T22:20:51.497Z,12.68
2022-11-10T22:23:55.889Z,14.95
2022-11-10T22:26:42.453Z,13.00
2022-11-10T22:29:31.926Z,12.88
2022-11-10T22:32:18.510Z,11.05
2022-11-10T22:35:05.946Z,12.65
2022-11-10T22:37:54.148Z,12.43
2022-11-10T22:40:58.194Z,12.10
2022-11-10T22:44:02.506Z,12.35
2022-11-10T22:46:51.022Z,12.13
2022-11-10T22:49:40.637Z,13.18
2022-11-10T22:52:27.120Z,13.18
2022-11-10T22:55:15.298Z,12.80
2022-11-10T22:58:01.676Z,12.95
2022-11-10T23:00:48.708Z,11.43
2022-11-10T23:03:35.981Z,11.43
2022-11-10T23:06:22.694Z,12.50
2022-11-10T23:09:09.749Z,12.00
2022-11-10T23:11:57.478Z,12.23
2022-11-10T23:14:44.022Z,11.80
2022-11-10T23:17:30.655Z,13.13
2022-11-10T23:20:17.082Z,12.00
2022-11-10T23:23:03.726Z,11.02
2022-11-10T23:25:57.270Z,11.80
2022-11-10T23:28:46.828Z,11.95
2022-11-10T23:31:33.417Z,12.05
2022-11-10T23:34:20.013Z,13.02
2022-11-10T23:37:06.561Z,11.68
2022-11-10T23:39:53.285Z,10.32
2022-11-10T23:42:40.177Z,11.05
2022-11-10T23:45:46.189Z,11.10
2022-11-10T23:48:34.849Z,10.07
2022-11-10T23:51:21.340Z,10.38
2022-11-10T23:54:07.536Z,11.70
2022-11-10T23:56:57.186Z,12.35
2022-11-10T23:59:43.786Z,10.40
